createdAt,value
2022-11-26T00:01:02.061Z,95355.97
2022-11-26T00:03:31.209Z,95356.16
2022-11-26T00:06:01.844Z,95351.72
2022-11-26T00:08:34.342Z,95351.72
2022-11-26T00:11:04.104Z,95350.91
2022-11-26T00:13:33.376Z,95345.94
2022-11-26T00:16:02.333Z,95351.97
2022-11-26T00:18:31.294Z,95357.41
2022-11-26T00:21:02.773Z,95363.00
2022-11-26T00:23:32.106Z,95351.00
2022-11-26T00:26:04.204Z,95357.66
2022-11-26T00:28:36.022Z,95361.97
2022-11-26T00:31:08.543Z,95370.16
2022-11-26T00:33:37.556Z,95376.75
2022-11-26T00:36:17.262Z,95370.72
2022-11-26T00:38:46.820Z,95373.50
2022-11-26T00:41:18.964Z,95377.19
2022-11-26T00:43:48.254Z,95373.50
2022-11-26T00:46:18.065Z,95386.41
2022-11-26T00:48:47.297Z,95372.59
2022-11-26T00:51:20.231Z,95370.50
2022-11-26T00:53:49.558Z,95370.97
2022-11-26T00:56:21.719Z,95372.94
2022-11-26T00:58:52.322Z,95372.94
2022-11-26T01:01:23.692Z,95370.50
2022-11-26T01:03:53.094Z,95380.97
2022-11-26T01:06:28.239Z,95386.84
2022-11-26T01:08:57.205Z,95395.63
2022-11-26T01:11:26.778Z,95404.28
2022-11-26T01:13:56.718Z,95412.00
2022-11-26T01:16:29.337Z,95409.06
2022-11-26T01:19:00.284Z,95408.25
2022-11-26T01:21:33.617Z,95410.22
2022-11-26T01:24:02.630Z,95402.28
2022-11-26T01:26:40.832Z,95401.34
2022-11-26T01:29:16.751Z,95400.34
2022-11-26T01:31:46.133Z,95401.63
2022-11-26T01:34:15.247Z,95409.66
2022-11-26T01:36:45.746Z,95408.66
2022-11-26T01:39:18.487Z,95407.22
2022-11-26T01:41:54.006Z,95392.22
2022-11-26T01:44:25.491Z,95402.66
2022-11-26T01:46:55.638Z,95401.25
2022-11-26T01:49:27.547Z,95409.53
2022-11-26T01:52:04.099Z,95401.81
2022-11-26T01:54:34.370Z,95407.22
2022-11-26T01:57:09.934Z,95406.94
2022-11-26T01:59:42.331Z,95407.84
2022-11-26T02:02:11.583Z,95404.06
2022-11-26T02:04:45.732Z,95409.03
2022-11-26T02:07:16.452Z,95406.72
2022-11-26T02:09:46.146Z,95398.22
2022-11-26T02:12:15.598Z,95405.16
2022-11-26T02:14:45.992Z,95406.06
2022-11-26T02:17:24.473Z,95403.72
2022-11-26T02:20:35.259Z,95401.72
2022-11-26T02:23:50.106Z,95392.69
2022-11-26T02:26:54.259Z,95392.34
2022-11-26T02:29:30.660Z,95408.78
2022-11-26T02:32:07.877Z,95405.69
2022-11-26T02:34:45.705Z,95406.16
2022-11-26T02:37:21.350Z,95410.03
2022-11-26T02:39:50.527Z,95410.03
2022-11-26T02:42:26.964Z,95413.09
2022-11-26T02:44:59.000Z,95414.72
2022-11-26T02:47:30.863Z,95421.69
2022-11-26T02:50:04.694Z,95416.06
2022-11-26T02:52:36.267Z,95419.06
2022-11-26T02:55:08.654Z,95424.38
2022-11-26T02:57:43.595Z,95417.78
2022-11-26T03:00:14.063Z,95413.91
2022-11-26T03:02:49.034Z,95416.81
2022-11-26T03:05:20.679Z,95419.97
2022-11-26T03:07:53.321Z,95423.38
2022-11-26T03:10:27.754Z,95438.19
2022-11-26T03:12:57.302Z,95438.00
2022-11-26T03:15:26.847Z,95443.59
2022-11-26T03:17:57.280Z,95437.38
2022-11-26T03:20:26.398Z,95443.25
2022-11-26T03:22:55.389Z,95442.72
2022-11-26T03:25:24.452Z,95441.34
2022-11-26T03:27:53.559Z,95447.66
2022-11-26T03:30:23.006Z,95450.28
2022-11-26T03:32:51.981Z,95460.13
2022-11-26T03:35:22.480Z,95462.75
2022-11-26T03:37:51.680Z,95464.31
2022-11-26T03:40:20.631Z,95465.56
2022-11-26T03:42:49.590Z,95465.19
2022-11-26T03:45:18.768Z,95467.94
2022-11-26T03:47:47.711Z,95470.56
2022-11-26T03:50:16.857Z,95472.81
2022-11-26T03:52:47.528Z,95471.53
2022-11-26T03:55:16.991Z,95467.22
2022-11-26T03:57:46.058Z,95471.53
2022-11-26T04:00:16.268Z,95476.75
2022-11-26T04:02:45.424Z,95482.00
2022-11-26T04:05:14.549Z,95484.28
2022-11-26T04:07:43.647Z,95486.25
2022-11-26T04:10:14.462Z,95487.34
2022-11-26T04:12:43.575Z,95488.81
2022-11-26T04:15:13.469Z,95492.41
2022-11-26T04:17:42.938Z,95493.94
2022-11-26T04:20:12.692Z,95486.72
2022-11-26T04:22:41.723Z,95495.75
2022-11-26T04:25:11.078Z,95507.97
2022-11-26T04:27:42.735Z,95499.81
2022-11-26T04:30:13.227Z,95507.66
2022-11-26T04:32:42.391Z,95513.00
2022-11-26T04:35:11.793Z,95503.34
2022-11-26T04:37:40.814Z,95508.28
2022-11-26T04:40:11.139Z,95514.97
2022-11-26T04:42:42.700Z,95516.97
2022-11-26T04:45:12.884Z,95520.69
2022-11-26T04:47:43.219Z,95526.34
2022-11-26T04:50:13.559Z,95532.75
2022-11-26T04:52:43.063Z,95533.41
2022-11-26T04:55:12.318Z,95533.53
2022-11-26T04:57:43.635Z,95528.53
2022-11-26T05:00:14.092Z,95527.38
2022-11-26T05:02:43.220Z,95534.88
2022-11-26T05:05:12.349Z,95537.94
2022-11-26T05:07:44.423Z,95540.56
2022-11-26T05:10:14.547Z,95539.94
2022-11-26T05:12:44.946Z,95538.41
2022-11-26T05:15:13.968Z,95543.28
2022-11-26T05:17:42.902Z,95544.09
2022-11-26T05:20:12.824Z,95534.59
2022-11-26T05:22:41.766Z,95529.81
2022-11-26T05:25:11.600Z,95534.25
2022-11-26T05:27:41.893Z,95536.25
2022-11-26T05:30:13.806Z,95541.75
2022-11-26T05:32:42.891Z,95550.97
2022-11-26T05:35:12.175Z,95550.59
2022-11-26T05:37:41.153Z,95548.44
2022-11-26T05:40:11.346Z,95553.22
2022-11-26T05:42:45.991Z,95551.06
2022-11-26T05:45:16.771Z,95550.94
2022-11-26T05:47:45.915Z,95550.44
2022-11-26T05:50:15.840Z,95555.75
2022-11-26T05:52:44.908Z,95546.53
2022-11-26T05:55:14.037Z,95555.75
2022-11-26T05:57:43.657Z,95556.56
2022-11-26T06:00:16.638Z,95558.56
2022-11-26T06:02:47.297Z,95558.47
2022-11-26T06:05:16.556Z,95562.00
2022-11-26T06:07:45.688Z,95555.13
2022-11-26T06:10:15.153Z,95558.94
2022-11-26T06:12:44.386Z,95568.16
2022-11-26T06:15:13.441Z,95572.56
2022-11-26T06:17:43.080Z,95575.84
2022-11-26T06:20:15.028Z,95577.63
2022-11-26T06:22:45.411Z,95576.44
2022-11-26T06:25:15.783Z,95579.50
2022-11-26T06:27:44.913Z,95577.19
2022-11-26T06:30:14.751Z,95586.84
2022-11-26T06:32:43.877Z,95587.66
2022-11-26T06:35:14.453Z,95590.91
2022-11-26T06:37:45.635Z,95580.84
2022-11-26T06:40:19.895Z,95582.50
2022-11-26T06:45:36.490Z,95580.09
2022-11-26T06:48:05.983Z,95584.19
2022-11-26T06:50:37.087Z,95579.47
2022-11-26T06:53:06.099Z,95589.28
2022-11-26T06:55:35.541Z,95580.13
2022-11-26T06:58:09.343Z,95590.44
2022-11-26T07:00:38.368Z,95586.09
2022-11-26T07:03:07.461Z,95589.59
2022-11-26T07:05:38.570Z,95595.97
2022-11-26T07:08:07.633Z,95600.22
2022-11-26T07:10:36.723Z,95590.22
2022-11-26T07:13:06.115Z,95584.91
2022-11-26T07:15:36.490Z,95594.50
2022-11-26T07:18:07.662Z,95591.03
2022-11-26T07:20:39.593Z,95596.13
2022-11-26T07:23:08.721Z,95591.69
2022-11-26T07:25:39.135Z,95591.31
2022-11-26T07:28:08.140Z,95595.56
2022-11-26T07:30:37.240Z,95588.81
2022-11-26T07:33:06.754Z,95595.03
2022-11-26T07:35:46.820Z,95598.75
2022-11-26T07:38:16.536Z,95608.09
2022-11-26T07:40:45.712Z,95611.38
2022-11-26T07:43:14.726Z,95611.09
2022-11-26T07:45:44.461Z,95612.88
2022-11-26T07:48:16.857Z,95616.50
2022-11-26T07:50:48.191Z,95615.34
2022-11-26T07:53:17.340Z,95623.66
2022-11-26T07:55:46.538Z,95632.56
2022-11-26T07:58:17.086Z,95626.56
2022-11-26T08:00:49.665Z,95634.38
2022-11-26T08:03:21.288Z,95634.97
2022-11-26T08:05:56.591Z,95637.78
2022-11-26T08:08:25.878Z,95635.47
2022-11-26T08:10:55.056Z,95643.94
2022-11-26T08:13:24.143Z,95643.38
2022-11-26T08:15:53.402Z,95645.91
2022-11-26T08:18:22.617Z,95639.53
2022-11-26T08:20:58.261Z,95644.00
2022-11-26T08:23:27.386Z,95642.19
2022-11-26T08:26:21.583Z,95645.63
2022-11-26T08:28:48.492Z,95643.84
2022-11-26T08:31:18.918Z,95641.78
2022-11-26T08:33:48.779Z,95645.75
2022-11-26T08:36:19.292Z,95643.78
2022-11-26T08:38:48.580Z,95643.91
2022-11-26T08:41:17.972Z,95647.56
2022-11-26T08:46:37.709Z,95644.59
2022-11-26T08:49:07.754Z,95645.00
2022-11-26T08:51:38.395Z,95644.81
2022-11-26T08:54:08.055Z,95660.81
2022-11-26T08:56:37.298Z,95653.25
2022-11-26T08:59:06.626Z,95641.34
2022-11-26T09:01:36.301Z,95644.63
2022-11-26T09:04:06.300Z,95642.44
2022-11-26T09:06:38.154Z,95650.69
2022-11-26T09:09:14.609Z,95640.78
2022-11-26T09:11:47.626Z,95652.25
2022-11-26T09:14:18.487Z,95638.06
2022-11-26T09:16:48.056Z,95639.66
2022-11-26T09:19:18.671Z,95639.47
2022-11-26T09:21:49.769Z,95643.75
2022-11-26T09:24:19.218Z,95645.53
2022-11-26T09:26:49.545Z,95651.56
2022-11-26T09:29:20.982Z,95646.69
2022-11-26T09:34:41.100Z,95639.19
2022-11-26T09:37:11.822Z,95641.66
2022-11-26T09:39:41.024Z,95643.09
2022-11-26T09:42:13.842Z,95628.72
2022-11-26T09:45:04.866Z,95624.25
2022-11-26T09:47:42.980Z,95634.19
2022-11-26T09:50:28.883Z,95627.09
2022-11-26T09:53:03.322Z,95643.34
2022-11-26T09:55:34.911Z,95631.94
2022-11-26T09:58:12.920Z,95636.03
2022-11-26T10:00:44.442Z,95629.75
2022-11-26T10:03:16.264Z,95634.63
2022-11-26T10:05:51.894Z,95629.75
2022-11-26T10:09:03.179Z,95626.28
2022-11-26T10:11:41.376Z,95619.78
2022-11-26T10:14:28.874Z,95634.81
2022-11-26T10:17:14.642Z,95621.00
2022-11-26T10:19:54.997Z,95618.47
2022-11-26T10:22:30.455Z,95616.38
2022-11-26T10:25:01.345Z,95619.69
2022-11-26T10:27:35.951Z,95608.91
2022-11-26T10:30:19.247Z,95609.44
2022-11-26T10:32:50.060Z,95608.00
2022-11-26T10:35:21.996Z,95608.50
2022-11-26T10:37:51.591Z,95613.56
2022-11-26T10:40:25.046Z,95602.50
2022-11-26T10:43:04.746Z,95604.09
2022-11-26T10:45:40.256Z,95601.97
2022-11-26T10:48:28.274Z,95610.59
2022-11-26T10:51:09.553Z,95606.44
2022-11-26T10:53:54.066Z,95602.03
2022-11-26T10:56:26.343Z,95608.53
2022-11-26T10:59:03.118Z,95610.50
2022-11-26T11:01:37.984Z,95608.25
2022-11-26T11:04:24.676Z,95607.94
2022-11-26T11:06:53.924Z,95595.13
2022-11-26T11:09:29.948Z,95599.91
2022-11-26T11:12:22.379Z,95592.19
2022-11-26T11:14:53.891Z,95595.22
2022-11-26T11:17:34.368Z,95597.56
2022-11-26T11:20:26.471Z,95600.38
2022-11-26T11:23:07.696Z,95597.72
2022-11-26T11:25:40.356Z,95593.59
2022-11-26T11:28:19.374Z,95592.03
2022-11-26T11:31:02.123Z,95590.59
2022-11-26T11:33:32.612Z,95579.53
2022-11-26T11:36:21.564Z,95590.97
2022-11-26T11:38:52.820Z,95588.59
2022-11-26T11:41:37.606Z,95586.31
2022-11-26T11:44:14.131Z,95589.63
2022-11-26T11:47:06.105Z,95579.66
2022-11-26T11:49:50.452Z,95570.59
2022-11-26T11:52:33.213Z,95567.88
2022-11-26T11:55:18.879Z,95574.84
2022-11-26T11:58:05.907Z,95566.50
2022-11-26T12:00:45.101Z,95566.78
2022-11-26T12:03:51.758Z,95566.00
2022-11-26T12:06:33.470Z,95564.38
2022-11-26T12:09:11.940Z,95565.63
2022-11-26T12:11:55.049Z,95571.25
2022-11-26T12:14:27.999Z,95563.66
2022-11-26T12:17:02.444Z,95566.28
2022-11-26T12:19:39.996Z,95563.41
2022-11-26T12:22:19.367Z,95562.25
2022-11-26T12:24:53.532Z,95562.53
2022-11-26T12:27:34.491Z,95556.16
2022-11-26T12:30:06.508Z,95548.00
2022-11-26T12:32:39.597Z,95553.25
2022-11-26T12:35:17.190Z,95559.25
2022-11-26T12:37:52.093Z,95553.84
2022-11-26T12:40:30.481Z,95554.59
2022-11-26T12:43:06.420Z,95554.56
2022-11-26T12:45:44.170Z,95556.69
2022-11-26T12:48:25.134Z,95553.91
2022-11-26T12:50:57.559Z,95549.91
2022-11-26T12:53:38.513Z,95549.41
2022-11-26T12:56:16.315Z,95543.22
2022-11-26T12:58:56.026Z,95542.78
2022-11-26T13:01:25.629Z,95545.94
2022-11-26T13:04:14.425Z,95541.66
2022-11-26T13:07:00.016Z,95546.25
2022-11-26T13:09:48.856Z,95549.38
2022-11-26T13:12:26.223Z,95548.09
2022-11-26T13:15:00.532Z,95560.03
2022-11-26T13:17:39.444Z,95558.94
2022-11-26T13:20:22.749Z,95560.47
2022-11-26T13:22:59.730Z,95557.47
2022-11-26T13:25:46.449Z,95556.94
2022-11-26T13:28:37.982Z,95552.16
2022-11-26T13:31:24.979Z,95555.06
2022-11-26T13:34:16.513Z,95563.81
2022-11-26T13:37:03.463Z,95567.53
2022-11-26T13:40:10.389Z,95559.00
2022-11-26T13:43:21.062Z,95560.53
2022-11-26T13:46:04.112Z,95556.47
2022-11-26T13:48:39.607Z,95554.00
2022-11-26T13:51:12.529Z,95558.94
2022-11-26T13:53:47.563Z,95555.47
2022-11-26T13:56:21.335Z,95558.72
2022-11-26T13:59:15.661Z,95554.34
2022-11-26T14:01:44.791Z,95561.78
2022-11-26T14:04:15.383Z,95557.16
2022-11-26T14:07:18.138Z,95562.03
2022-11-26T14:09:50.487Z,95560.47
2022-11-26T14:12:20.508Z,95563.03
2022-11-26T14:14:51.498Z,95565.47
2022-11-26T14:17:23.779Z,95563.44
2022-11-26T14:20:13.676Z,95559.97
2022-11-26T14:22:42.864Z,95561.47
2022-11-26T14:25:14.825Z,95562.50
2022-11-26T14:27:54.072Z,95566.56
2022-11-26T14:30:29.598Z,95568.03
2022-11-26T14:33:13.842Z,95573.31
2022-11-26T14:35:53.825Z,95567.22
2022-11-26T14:38:28.967Z,95568.03
2022-11-26T14:41:00.563Z,95568.66
2022-11-26T14:43:30.693Z,95577.19
2022-11-26T14:46:11.130Z,95575.16
2022-11-26T14:48:45.555Z,95579.00
2022-11-26T14:51:23.943Z,95587.72
2022-11-26T14:53:54.299Z,95584.09
2022-11-26T14:56:26.381Z,95587.75
2022-11-26T14:58:59.219Z,95587.94
2022-11-26T15:01:32.382Z,95584.50
2022-11-26T15:04:03.947Z,95596.22
2022-11-26T15:06:38.517Z,95600.84
2022-11-26T15:09:19.094Z,95603.09
2022-11-26T15:11:50.869Z,95599.44
2022-11-26T15:14:24.884Z,95601.84
2022-11-26T15:16:59.374Z,95596.56
2022-11-26T15:19:32.071Z,95596.94
2022-11-26T15:22:04.375Z,95597.66
2022-11-26T15:24:34.938Z,95600.91
2022-11-26T15:27:04.253Z,95611.44
2022-11-26T15:29:36.674Z,95605.13
2022-11-26T15:32:07.983Z,95608.94
2022-11-26T15:34:37.866Z,95610.47
2022-11-26T15:37:07.608Z,95616.56
2022-11-26T15:39:36.879Z,95623.44
2022-11-26T15:42:24.004Z,95622.81
2022-11-26T15:44:53.596Z,95628.59
2022-11-26T15:47:28.503Z,95628.63
2022-11-26T15:50:01.641Z,95633.81
2022-11-26T15:52:33.261Z,95634.41
2022-11-26T15:55:13.726Z,95630.78
2022-11-26T15:57:43.718Z,95632.81
2022-11-26T16:00:23.272Z,95628.88
2022-11-26T16:02:54.289Z,95628.56
2022-11-26T16:05:31.559Z,95633.56
2022-11-26T16:08:02.918Z,95633.56
2022-11-26T16:10:35.783Z,95636.44
2022-11-26T16:13:23.432Z,95635.34
2022-11-26T16:15:58.221Z,95631.22
2022-11-26T16:18:36.289Z,95638.19
2022-11-26T16:21:08.930Z,95646.06
2022-11-26T16:23:38.651Z,95638.97
2022-11-26T16:26:15.749Z,95657.03
2022-11-26T16:28:46.005Z,95654.84
2022-11-26T16:31:16.023Z,95652.31
2022-11-26T16:33:46.774Z,95654.22
2022-11-26T16:36:22.693Z,95667.66
2022-11-26T16:38:53.119Z,95667.22
2022-11-26T16:41:24.058Z,95674.75
2022-11-26T16:43:53.444Z,95673.53
2022-11-26T16:46:26.226Z,95669.41
2022-11-26T16:48:57.081Z,95688.25
2022-11-26T16:51:26.264Z,95683.00
2022-11-26T16:53:55.490Z,95684.03
2022-11-26T16:56:27.316Z,95680.97
2022-11-26T16:58:59.498Z,95689.38
2022-11-26T17:01:29.350Z,95692.91
2022-11-26T17:04:00.277Z,95700.59
2022-11-26T17:06:34.243Z,95699.78
2022-11-26T17:09:03.556Z,95697.25
2022-11-26T17:11:32.659Z,95701.69
2022-11-26T17:14:02.012Z,95698.69
2022-11-26T17:16:34.331Z,95706.31
2022-11-26T17:19:04.821Z,95713.38
2022-11-26T17:21:34.121Z,95712.25
2022-11-26T17:24:03.497Z,95711.63
2022-11-26T17:26:32.904Z,95712.06
2022-11-26T17:29:02.957Z,95722.84
2022-11-26T17:31:32.363Z,95721.22
2022-11-26T17:34:01.822Z,95729.53
2022-11-26T17:36:36.841Z,95734.53
2022-11-26T17:39:06.499Z,95745.06
2022-11-26T17:41:35.911Z,95744.88
2022-11-26T17:44:05.347Z,95741.53
2022-11-26T17:46:48.068Z,95742.28
2022-11-26T17:49:24.545Z,95744.44
2022-11-26T17:51:55.117Z,95745.19
2022-11-26T17:54:25.221Z,95752.97
2022-11-26T17:56:54.787Z,95753.41
2022-11-26T17:59:24.256Z,95755.06
2022-11-26T18:01:54.380Z,95753.06
2022-11-26T18:04:23.739Z,95756.13
2022-11-26T18:07:24.528Z,95758.19
2022-11-26T18:09:54.175Z,95766.63
2022-11-26T18:12:26.086Z,95764.00
2022-11-26T18:14:57.222Z,95774.44
2022-11-26T18:17:26.971Z,95763.13
2022-11-26T18:19:56.965Z,95755.81
2022-11-26T18:22:29.457Z,95758.34
2022-11-26T18:24:59.921Z,95759.34
2022-11-26T18:27:31.648Z,95755.66
2022-11-26T18:30:02.241Z,95754.66
2022-11-26T18:32:32.841Z,95753.84
2022-11-26T18:35:03.005Z,95750.22
2022-11-26T18:37:36.329Z,95752.75
2022-11-26T18:40:06.243Z,95749.41
2022-11-26T18:42:37.775Z,95758.00
2022-11-26T18:45:09.480Z,95757.28
2022-11-26T18:47:39.502Z,95753.66
2022-11-26T18:50:10.095Z,95767.25
2022-11-26T18:52:40.918Z,95765.31
2022-11-26T18:55:11.036Z,95764.78
2022-11-26T18:57:52.020Z,95762.16
2022-11-26T19:00:22.218Z,95769.47
2022-11-26T19:02:52.030Z,95762.34
2022-11-26T19:05:21.693Z,95762.69
2022-11-26T19:07:56.508Z,95774.09
2022-11-26T19:10:45.903Z,95772.50
2022-11-26T19:13:15.290Z,95775.75
2022-11-26T19:15:45.329Z,95781.97
2022-11-26T19:18:15.753Z,95776.44
2022-11-26T19:20:53.368Z,95770.97
2022-11-26T19:23:28.615Z,95763.69
2022-11-26T19:26:00.542Z,95770.28
2022-11-26T19:28:30.271Z,95770.16
2022-11-26T19:31:03.122Z,95776.59
2022-11-26T19:33:35.098Z,95782.16
2022-11-26T19:36:06.092Z,95776.09
2022-11-26T19:38:37.417Z,95779.13
2022-11-26T19:41:08.308Z,95777.66
2022-11-26T19:43:38.960Z,95783.22
2022-11-26T19:46:12.238Z,95792.59
2022-11-26T19:48:52.884Z,95794.09
2022-11-26T19:51:23.374Z,95788.41
2022-11-26T19:53:55.701Z,95789.06
2022-11-26T19:56:27.484Z,95792.69
2022-11-26T19:59:02.797Z,95789.78
2022-11-26T20:01:49.101Z,95791.25
2022-11-26T20:04:20.026Z,95786.84
2022-11-26T20:07:10.500Z,95787.16
2022-11-26T20:09:42.195Z,95791.13
2022-11-26T20:12:12.310Z,95789.81
2022-11-26T20:14:41.903Z,95792.00
2022-11-26T20:17:11.356Z,95790.97
2022-11-26T20:19:41.230Z,95789.88
2022-11-26T20:22:10.806Z,95799.03
2022-11-26T20:24:42.337Z,95802.63
2022-11-26T20:27:11.680Z,95797.75
2022-11-26T20:29:41.335Z,95794.31
2022-11-26T20:32:10.954Z,95794.81
2022-11-26T20:34:40.397Z,95795.47
2022-11-26T20:37:09.433Z,95803.34
2022-11-26T20:39:39.142Z,95802.84
2022-11-26T20:42:12.189Z,95798.59
2022-11-26T20:44:41.928Z,95799.91
2022-11-26T20:47:13.010Z,95802.19
2022-11-26T20:49:43.258Z,95798.13
2022-11-26T20:52:13.722Z,95802.72
2022-11-26T20:54:42.868Z,95803.38
2022-11-26T20:57:13.204Z,95801.75
2022-11-26T20:59:44.287Z,95805.00
2022-11-26T21:02:14.376Z,95804.06
2022-11-26T21:04:43.836Z,95797.19
2022-11-26T21:07:13.062Z,95802.25
2022-11-26T21:09:42.446Z,95795.69
2022-11-26T21:12:13.218Z,95805.84
2022-11-26T21:14:42.369Z,95807.97
2022-11-26T21:17:11.689Z,95801.09
2022-11-26T21:19:41.049Z,95804.22
2022-11-26T21:22:11.119Z,95809.28
2022-11-26T21:24:40.760Z,95801.94
2022-11-26T21:27:10.049Z,95799.81
2022-11-26T21:29:46.882Z,95801.94
2022-11-26T21:32:16.129Z,95798.84
2022-11-26T21:34:45.447Z,95806.03
2022-11-26T21:37:14.689Z,95809.63
2022-11-26T21:39:43.816Z,95819.75
2022-11-26T21:42:13.042Z,95806.03
2022-11-26T21:44:43.539Z,95812.25
2022-11-26T21:47:15.015Z,95818.44
2022-11-26T21:49:44.265Z,95813.38
2022-11-26T21:52:14.051Z,95811.75
2022-11-26T21:54:43.153Z,95807.16
2022-11-26T21:57:13.010Z,95819.44
2022-11-26T21:59:43.668Z,95819.63
2022-11-26T22:02:14.558Z,95814.88
2022-11-26T22:04:43.835Z,95816.50
2022-11-26T22:07:13.024Z,95823.84
2022-11-26T22:09:42.433Z,95815.19
2022-11-26T22:12:12.095Z,95820.25
2022-11-26T22:14:42.752Z,95816.16
2022-11-26T22:17:11.886Z,95821.06
2022-11-26T22:19:41.172Z,95817.47
2022-11-26T22:22:10.806Z,95826.97
2022-11-26T22:24:39.851Z,95826.97
2022-11-26T22:27:08.850Z,95829.59
2022-11-26T22:29:38.672Z,95827.13
2022-11-26T22:32:09.331Z,95813.22
2022-11-26T22:34:38.590Z,95819.44
2022-11-26T22:37:07.529Z,95819.44
2022-11-26T22:39:36.845Z,95825.16
2022-11-26T22:42:06.198Z,95814.22
2022-11-26T22:44:35.496Z,95814.88
2022-11-26T22:47:04.438Z,95819.75
2022-11-26T22:49:35.876Z,95822.72
2022-11-26T22:52:04.820Z,95821.53
2022-11-26T22:54:34.285Z,95818.47
2022-11-26T22:57:03.287Z,95812.56
2022-11-26T22:59:33.243Z,95813.72
2022-11-26T23:02:02.401Z,95819.75
2022-11-26T23:04:31.435Z,95811.59
2022-11-26T23:07:01.976Z,95815.03
2022-11-26T23:09:31.563Z,95809.97
2022-11-26T23:12:00.585Z,95817.63
2022-11-26T23:14:29.717Z,95819.13
2022-11-26T23:16:58.749Z,95815.50
2022-11-26T23:19:27.822Z,95817.78
2022-11-26T23:21:56.954Z,95818.63
2022-11-26T23:24:30.319Z,95816.19
2022-11-26T23:26:59.680Z,95808.00
2022-11-26T23:29:28.876Z,95817.31
2022-11-26T23:31:58.026Z,95819.44
2022-11-26T23:34:27.321Z,95824.53
2022-11-26T23:36:56.507Z,95823.50
2022-11-26T23:39:26.882Z,95823.88
2022-11-26T23:41:56.109Z,95821.09
2022-11-26T23:44:25.015Z,95830.22
2022-11-26T23:46:54.080Z,95832.69
2022-11-26T23:49:23.364Z,95825.00
2022-11-26T23:51:52.486Z,95827.59
2022-11-26T23:54:21.513Z,95822.06
2022-11-26T23:56:52.904Z,95829.75
2022-11-26T23:59:22.157Z,95826.63
